sensor_id;sensor_type;location;lat;lon;timestamp;P1;durP1;ratioP1;P2;durP2;ratioP2
86080;SDS011;76690;46.208;11.094;2024-02-21T00:00:21;0.30;;;0.30;;
86080;SDS011;76690;46.208;11.094;2024-02-21T00:02:47;0.30;;;0.30;;
86080;SDS011;76690;46.208;11.094;2024-02-21T00:05:13;0.30;;;0.30;;
86080;SDS011;76690;46.208;11.094;2024-02-21T00:07:39;0.38;;;0.38;;
86080;SDS011;76690;46.208;11.094;2024-02-21T00:10:05;0.50;;;0.50;;
86080;SDS011;76690;46.208;11.094;2024-02-21T00:12:31;0.40;;;0.40;;
86080;SDS011;76690;46.208;11.094;2024-02-21T00:14:57;0.40;;;0.40;;
86080;SDS011;76690;46.208;11.094;2024-02-21T00:17:23;0.75;;;0.75;;
86080;SDS011;76690;46.208;11.094;2024-02-21T00:19:51;0.20;;;0.20;;
86080;SDS011;76690;46.208;11.094;2024-02-21T00:22:17;0.17;;;0.17;;
86080;SDS011;76690;46.208;11.094;2024-02-21T00:24:43;0.30;;;0.30;;
86080;SDS011;76690;46.208;11.094;2024-02-21T00:27:09;0.30;;;0.30;;
86080;SDS011;76690;46.208;11.094;2024-02-21T00:29:35;0.60;;;0.60;;
86080;SDS011;76690;46.208;11.094;2024-02-21T00:32:01;0.28;;;0.28;;
86080;SDS011;76690;46.208;11.094;2024-02-21T00:34:27;0.22;;;0.22;;
86080;SDS011;76690;46.208;11.094;2024-02-21T00:36:53;0.17;;;0.17;;
86080;SDS011;76690;46.208;11.094;2024-02-21T00:39:19;0.20;;;0.20;;
86080;SDS011;76690;46.208;11.094;2024-02-21T00:41:45;0.30;;;0.30;;
86080;SDS011;76690;46.208;11.094;2024-02-21T00:44:11;0.30;;;0.30;;
86080;SDS011;76690;46.208;11.094;2024-02-21T00:46:37;0.38;;;0.38;;
86080;SDS011;76690;46.208;11.094;2024-02-21T00:49:03;0.20;;;0.20;;
86080;SDS011;76690;46.208;11.094;2024-02-21T00:51:30;0.30;;;0.30;;
86080;SDS011;76690;46.208;11.094;2024-02-21T00:53:56;0.20;;;0.20;;
86080;SDS011;76690;46.208;11.094;2024-02-21T00:56:22;0.40;;;0.40;;
86080;SDS011;76690;46.208;11.094;2024-02-21T00:58:48;0.30;;;0.30;;
86080;SDS011;76690;46.208;11.094;2024-02-21T01:01:20;0.20;;;0.20;;
86080;SDS011;76690;46.208;11.094;2024-02-21T01:03:46;0.22;;;0.22;;
86080;SDS011;76690;46.208;11.094;2024-02-21T01:06:12;0.20;;;0.20;;
86080;SDS011;76690;46.208;11.094;2024-02-21T01:08:38;0.28;;;0.28;;
86080;SDS011;76690;46.208;11.094;2024-02-21T01:11:04;0.20;;;0.20;;
86080;SDS011;76690;46.208;11.094;2024-02-21T01:13:30;0.28;;;0.28;;
86080;SDS011;76690;46.208;11.094;2024-02-21T01:15:56;0.30;;;0.30;;
86080;SDS011;76690;46.208;11.094;2024-02-21T01:18:22;0.20;;;0.20;;
86080;SDS011;76690;46.208;11.094;2024-02-21T01:20:48;0.30;;;0.30;;
86080;SDS011;76690;46.208;11.094;2024-02-21T01:23:14;0.20;;;0.20;;
86080;SDS011;76690;46.208;11.094;2024-02-21T01:25:40;0.28;;;0.28;;
86080;SDS011;76690;46.208;11.094;2024-02-21T01:28:07;0.30;;;0.30;;
86080;SDS011;76690;46.208;11.094;2024-02-21T01:30:34;0.17;;;0.17;;
86080;SDS011;76690;46.208;11.094;2024-02-21T01:33:00;0.32;;;0.32;;
86080;SDS011;76690;46.208;11.094;2024-02-21T01:35:26;0.30;;;0.30;;
86080;SDS011;76690;46.208;11.094;2024-02-21T01:37:52;0.20;;;0.20;;
86080;SDS011;76690;46.208;11.094;2024-02-21T01:40:18;0.60;;;0.60;;
86080;SDS011;76690;46.208;11.094;2024-02-21T01:42:44;0.30;;;0.30;;
86080;SDS011;76690;46.208;11.094;2024-02-21T01:45:12;0.20;;;0.20;;
86080;SDS011;76690;46.208;11.094;2024-02-21T01:47:38;0.28;;;0.28;;
86080;SDS011;76690;46.208;11.094;2024-02-21T01:50:04;0.20;;;0.20;;
86080;SDS011;76690;46.208;11.094;2024-02-21T01:52:31;0.40;;;0.40;;
86080;SDS011;76690;46.208;11.094;2024-02-21T01:54:58;0.30;;;0.30;;
86080;SDS011;76690;46.208;11.094;2024-02-21T01:57:24;0.30;;;0.30;;
86080;SDS011;76690;46.208;11.094;2024-02-21T01:59:50;0.28;;;0.28;;
86080;SDS011;76690;46.208;11.094;2024-02-21T02:02:16;0.20;;;0.20;;
86080;SDS011;76690;46.208;11.094;2024-02-21T02:04:43;0.40;;;0.40;;
86080;SDS011;76690;46.208;11.094;2024-02-21T02:07:09;0.30;;;0.30;;
86080;SDS011;76690;46.208;11.094;2024-02-21T02:09:35;0.30;;;0.30;;
86080;SDS011;76690;46.208;11.094;2024-02-21T02:12:02;0.20;;;0.20;;
86080;SDS011;76690;46.208;11.094;2024-02-21T02:14:28;0.30;;;0.30;;
86080;SDS011;76690;46.208;11.094;2024-02-21T02:16:54;0.20;;;0.20;;
86080;SDS011;76690;46.208;11.094;2024-02-21T02:19:20;0.30;;;0.30;;
86080;SDS011;76690;46.208;11.094;2024-02-21T02:21:47;0.20;;;0.20;;
86080;SDS011;76690;46.208;11.094;2024-02-21T02:24:20;0.20;;;0.20;;
86080;SDS011;76690;46.208;11.094;2024-02-21T02:26:46;0.40;;;0.40;;
86080;SDS011;76690;46.208;11.094;2024-02-21T02:29:12;0.20;;;0.20;;
86080;SDS011;76690;46.208;11.094;2024-02-21T02:31:38;0.25;;;0.25;;
86080;SDS011;76690;46.208;11.094;2024-02-21T02:34:04;0.22;;;0.22;;
86080;SDS011;76690;46.208;11.094;2024-02-21T02:36:32;0.20;;;0.20;;
86080;SDS011;76690;46.208;11.094;2024-02-21T02:38:58;0.20;;;0.20;;
86080;SDS011;76690;46.208;11.094;2024-02-21T02:41:24;0.40;;;0.40;;
86080;SDS011;76690;46.208;11.094;2024-02-21T02:43:50;0.20;;;0.20;;
86080;SDS011;76690;46.208;11.094;2024-02-21T02:46:16;0.47;;;0.47;;
86080;SDS011;76690;46.208;11.094;2024-02-21T02:48:42;0.50;;;0.50;;
86080;SDS011;76690;46.208;11.094;2024-02-21T02:51:10;0.30;;;0.30;;
86080;SDS011;76690;46.208;11.094;2024-02-21T02:53:36;0.30;;;0.30;;
86080;SDS011;76690;46.208;11.094;2024-02-21T02:56:02;0.10;;;0.10;;
86080;SDS011;76690;46.208;11.094;2024-02-21T02:58:28;0.30;;;0.30;;
86080;SDS011;76690;46.208;11.094;2024-02-21T03:00:54;0.20;;;0.20;;
86080;SDS011;76690;46.208;11.094;2024-02-21T03:03:20;0.30;;;0.30;;
86080;SDS011;76690;46.208;11.094;2024-02-21T03:05:46;0.50;;;0.50;;
86080;SDS011;76690;46.208;11.094;2024-02-21T03:08:12;0.20;;;0.20;;
86080;SDS011;76690;46.208;11.094;2024-02-21T03:10:38;0.38;;;0.38;;
86080;SDS011;76690;46.208;11.094;2024-02-21T03:13:04;0.40;;;0.40;;
86080;SDS011;76690;46.208;11.094;2024-02-21T03:15:30;0.40;;;0.40;;
86080;SDS011;76690;46.208;11.094;2024-02-21T03:17:56;0.40;;;0.40;;
86080;SDS011;76690;46.208;11.094;2024-02-21T03:20:22;0.30;;;0.30;;
86080;SDS011;76690;46.208;11.094;2024-02-21T03:22:48;0.50;;;0.50;;
86080;SDS011;76690;46.208;11.094;2024-02-21T03:25:14;0.30;;;0.30;;
86080;SDS011;76690;46.208;11.094;2024-02-21T03:27:40;0.30;;;0.30;;
86080;SDS011;76690;46.208;11.094;2024-02-21T03:30:07;0.25;;;0.25;;
86080;SDS011;76690;46.208;11.094;2024-02-21T03:32:33;0.50;;;0.50;;
86080;SDS011;76690;46.208;11.094;2024-02-21T03:35:00;0.43;;;0.43;;
86080;SDS011;76690;46.208;11.094;2024-02-21T03:37:26;0.35;;;0.35;;
86080;SDS011;76690;46.208;11.094;2024-02-21T03:39:52;0.40;;;0.40;;
86080;SDS011;76690;46.208;11.094;2024-02-21T03:42:18;0.30;;;0.30;;
86080;SDS011;76690;46.208;11.094;2024-02-21T03:44:44;0.28;;;0.28;;
86080;SDS011;76690;46.208;11.094;2024-02-21T03:47:10;0.40;;;0.40;;
86080;SDS011;76690;46.208;11.094;2024-02-21T03:49:36;0.40;;;0.40;;
86080;SDS011;76690;46.208;11.094;2024-02-21T03:52:02;0.35;;;0.35;;
86080;SDS011;76690;46.208;11.094;2024-02-21T03:54:28;0.30;;;0.30;;
86080;SDS011;76690;46.208;11.094;2024-02-21T03:56:54;0.40;;;0.40;;
86080;SDS011;76690;46.208;11.094;2024-02-21T03:59:22;0.50;;;0.50;;
86080;SDS011;76690;46.208;11.094;2024-02-21T04:01:51;0.30;;;0.30;;
86080;SDS011;76690;46.208;11.094;2024-02-21T04:04:17;0.30;;;0.30;;
86080;SDS011;76690;46.208;11.094;2024-02-21T04:06:50;0.47;;;0.47;;
86080;SDS011;76690;46.208;11.094;2024-02-21T04:09:16;0.45;;;0.45;;
86080;SDS011;76690;46.208;11.094;2024-02-21T04:11:42;0.20;;;0.20;;
86080;SDS011;76690;46.208;11.094;2024-02-21T04:14:08;0.30;;;0.30;;
86080;SDS011;76690;46.208;11.094;2024-02-21T04:16:36;0.30;;;0.30;;
86080;SDS011;76690;46.208;11.094;2024-02-21T04:19:02;0.55;;;0.55;;
86080;SDS011;76690;46.208;11.094;2024-02-21T04:21:28;0.30;;;0.30;;
86080;SDS011;76690;46.208;11.094;2024-02-21T04:23:54;0.50;;;0.50;;
86080;SDS011;76690;46.208;11.094;2024-02-21T04:26:20;0.20;;;0.20;;
86080;SDS011;76690;46.208;11.094;2024-02-21T04:28:46;0.22;;;0.22;;
86080;SDS011;76690;46.208;11.094;2024-02-21T04:31:12;0.65;;;0.65;;
86080;SDS011;76690;46.208;11.094;2024-02-21T04:33:38;0.47;;;0.47;;
86080;SDS011;76690;46.208;11.094;2024-02-21T04:36:04;0.30;;;0.30;;
86080;SDS011;76690;46.208;11.094;2024-02-21T04:38:31;0.50;;;0.50;;
86080;SDS011;76690;46.208;11.094;2024-02-21T04:40:57;0.20;;;0.20;;
86080;SDS011;76690;46.208;11.094;2024-02-21T04:43:24;0.50;;;0.50;;
86080;SDS011;76690;46.208;11.094;2024-02-21T04:45:50;0.40;;;0.40;;
86080;SDS011;76690;46.208;11.094;2024-02-21T04:48:18;0.22;;;0.22;;
86080;SDS011;76690;46.208;11.094;2024-02-21T04:50:44;0.30;;;0.30;;
86080;SDS011;76690;46.208;11.094;2024-02-21T04:53:10;0.20;;;0.20;;
86080;SDS011;76690;46.208;11.094;2024-02-21T04:55:36;0.35;;;0.35;;
86080;SDS011;76690;46.208;11.094;2024-02-21T04:58:02;0.43;;;0.43;;
86080;SDS011;76690;46.208;11.094;2024-02-21T05:00:28;0.30;;;0.30;;
86080;SDS011;76690;46.208;11.094;2024-02-21T05:02:55;0.47;;;0.47;;
86080;SDS011;76690;46.208;11.094;2024-02-21T05:05:21;0.45;;;0.45;;
86080;SDS011;76690;46.208;11.094;2024-02-21T05:07:47;0.40;;;0.40;;
86080;SDS011;76690;46.208;11.094;2024-02-21T05:10:13;0.30;;;0.30;;
86080;SDS011;76690;46.208;11.094;2024-02-21T05:12:39;0.50;;;0.50;;
86080;SDS011;76690;46.208;11.094;2024-02-21T05:15:05;0.32;;;0.32;;
86080;SDS011;76690;46.208;11.094;2024-02-21T05:17:31;0.30;;;0.30;;
86080;SDS011;76690;46.208;11.094;2024-02-21T05:19:57;0.47;;;0.47;;
86080;SDS011;76690;46.208;11.094;2024-02-21T05:22:23;0.22;;;0.22;;
86080;SDS011;76690;46.208;11.094;2024-02-21T05:24:49;0.30;;;0.30;;
86080;SDS011;76690;46.208;11.094;2024-02-21T05:27:15;0.32;;;0.32;;
86080;SDS011;76690;46.208;11.094;2024-02-21T05:29:41;0.30;;;0.30;;
86080;SDS011;76690;46.208;11.094;2024-02-21T05:32:07;0.40;;;0.40;;
86080;SDS011;76690;46.208;11.094;2024-02-21T05:34:33;0.50;;;0.50;;
86080;SDS011;76690;46.208;11.094;2024-02-21T05:36:59;0.32;;;0.32;;
86080;SDS011;76690;46.208;11.094;2024-02-21T05:39:26;0.38;;;0.38;;
86080;SDS011;76690;46.208;11.094;2024-02-21T05:41:54;0.20;;;0.20;;
86080;SDS011;76690;46.208;11.094;2024-02-21T05:44:20;0.40;;;0.40;;
86080;SDS011;76690;46.208;11.094;2024-02-21T05:46:47;0.50;;;0.50;;
86080;SDS011;76690;46.208;11.094;2024-02-21T05:49:13;0.30;;;0.30;;
86080;SDS011;76690;46.208;11.094;2024-02-21T05:51:39;0.88;;;0.88;;
86080;SDS011;76690;46.208;11.094;2024-02-21T05:54:05;0.32;;;0.32;;
86080;SDS011;76690;46.208;11.094;2024-02-21T11:41:28;15.00;;;3.10;;
86080;SDS011;76690;46.208;11.094;2024-02-21T11:43:54;23.35;;;4.40;;
